Time;durP1;ratioP1;P1;durP2;ratioP2;P2;SDS_P1;SDS_P2;PMS_P1;PMS_P2;Temp;Humidity;BMP_temperature;BMP_pressure;BME280_temperature;BME280_humidity;BME280_pressure;Samples;Min_cycle;Max_cycle;Signal;HPM_P1;HPM_P2
2023/01/11 00:00:15;;;;;;;14.90;11.38;;;;;;;;;;5014978;28;20057;-76
2023/01/11 00:02:43;;;;;;;17.02;11.73;;;;;;;;;;5014789;28;20054;-77
2023/01/11 00:05:10;;;;;;;15.30;11.50;;;;;;;;;;5015835;28;20504;-76
2023/01/11 00:07:37;;;;;;;15.93;11.63;;;;;;;;;;5015793;28;20056;-76
2023/01/11 00:10:04;;;;;;;14.60;11.23;;;;;;;;;;5027811;28;20053;-76
2023/01/11 00:12:30;;;;;;;16.52;11.90;;;;;;;;;;5033372;28;20407;-76
2023/01/11 00:14:56;;;;;;;14.18;9.73;;;;;;;;;;5035513;28;20060;-76
2023/01/11 00:17:22;;;;;;;16.38;11.50;;;;;;;;;;5031817;28;20041;-76
2023/01/11 00:19:48;;;;;;;14.48;10.65;;;;;;;;;;5015882;28;20045;-76
2023/01/11 00:22:14;;;;;;;13.50;11.05;;;;;;;;;;5015586;28;20049;-76
2023/01/11 00:24:40;;;;;;;11.80;9.25;;;;;;;;;;5014516;28;20050;-76
2023/01/11 00:27:06;;;;;;;13.75;10.13;;;;;;;;;;5015477;28;20038;-76
2023/01/11 00:29:32;;;;;;;14.00;10.70;;;;;;;;;;5032202;28;20044;-76
2023/01/11 00:31:58;;;;;;;15.48;11.07;;;;;;;;;;5034949;28;20069;-76
2023/01/11 00:34:24;;;;;;;13.23;9.07;;;;;;;;;;5035244;28;20555;-76
2023/01/11 00:36:50;;;;;;;13.55;9.88;;;;;;;;;;5034485;28;20373;-76
2023/01/11 00:39:17;;;;;;;12.82;9.70;;;;;;;;;;5033179;28;20045;-76
2023/01/11 00:49:58;;;;;;;12.13;8.98;;;;;;;;;;5034203;28;20077;-76
2023/01/11 00:52:24;;;;;;;11.20;8.63;;;;;;;;;;5033281;28;20084;-77
2023/01/11 00:54:51;;;;;;;12.60;8.40;;;;;;;;;;5034347;28;20511;-76
2023/01/11 00:57:17;;;;;;;11.85;8.30;;;;;;;;;;5034182;28;20041;-76
2023/01/11 00:59:43;;;;;;;11.40;8.15;;;;;;;;;;5033741;28;20096;-76
2023/01/11 01:02:10;;;;;;;8.48;7.05;;;;;;;;;;5033602;28;20049;-76
2023/01/11 01:04:36;;;;;;;8.32;6.80;;;;;;;;;;5033945;28;20095;-76
2023/01/11 01:07:03;;;;;;;9.23;6.90;;;;;;;;;;5021745;28;20042;-77
2023/01/11 01:09:29;;;;;;;7.70;6.45;;;;;;;;;;5029323;28;20384;-76
2023/01/11 01:11:55;;;;;;;8.20;6.28;;;;;;;;;;5029954;28;20034;-76
2023/01/11 01:14:24;;;;;;;9.63;6.72;;;;;;;;;;5014911;28;20058;-76
2023/01/11 01:16:51;;;;;;;8.30;6.55;;;;;;;;;;5008750;28;20046;-77
2023/01/11 01:19:17;;;;;;;11.10;7.32;;;;;;;;;;5014947;28;20042;-77
2023/01/11 01:21:43;;;;;;;9.30;7.00;;;;;;;;;;5014274;28;20103;-77
2023/01/11 01:24:09;;;;;;;9.98;7.32;;;;;;;;;;5029226;28;20042;-78
2023/01/11 01:26:35;;;;;;;9.50;6.50;;;;;;;;;;5032200;28;20045;-78
2023/01/11 01:29:01;;;;;;;8.93;6.53;;;;;;;;;;5029429;28;20576;-78
2023/01/11 01:31:27;;;;;;;10.45;7.25;;;;;;;;;;5014546;28;20381;-77
2023/01/11 01:33:53;;;;;;;9.07;6.93;;;;;;;;;;5017957;28;20225;-77
2023/01/11 01:36:20;;;;;;;9.65;7.22;;;;;;;;;;5019321;28;20049;-77
2023/01/11 01:38:46;;;;;;;12.45;7.78;;;;;;;;;;5030260;28;20121;-77
2023/01/11 01:41:13;;;;;;;9.88;7.25;;;;;;;;;;5033182;28;20083;-77
2023/01/11 01:43:45;;;;;;;10.68;7.35;;;;;;;;;;5028735;28;20088;-77
2023/01/11 01:46:11;;;;;;;11.43;8.57;;;;;;;;;;5014570;28;20147;-77
2023/01/11 01:48:38;;;;;;;10.40;7.60;;;;;;;;;;5012831;28;20053;-77
2023/01/11 01:51:06;;;;;;;10.95;8.18;;;;;;;;;;5012827;28;20056;-77
2023/01/11 01:53:37;;;;;;;11.02;8.45;;;;;;;;;;5024232;28;20060;-76
2023/01/11 01:56:06;;;;;;;10.98;8.38;;;;;;;;;;5014452;28;20086;-76
2023/01/11 01:58:37;;;;;;;11.85;8.50;;;;;;;;;;5014248;28;20038;-76
2023/01/11 02:03:49;;;;;;;12.80;8.98;;;;;;;;;;5033705;28;20049;-76
2023/01/11 02:06:15;;;;;;;12.98;9.38;;;;;;;;;;5024281;28;20392;-77
2023/01/11 02:08:43;;;;;;;13.38;9.68;;;;;;;;;;5028146;28;20045;-77
2023/01/11 02:11:28;;;;;;;13.95;9.10;;;;;;;;;;5049031;28;20045;-78
2023/01/11 02:13:56;;;;;;;11.98;8.80;;;;;;;;;;5032147;28;20160;-79
2023/01/11 02:16:22;;;;;;;13.82;9.90;;;;;;;;;;5033518;28;20123;-77
2023/01/11 02:18:48;;;;;;;14.15;9.80;;;;;;;;;;5034415;28;20041;-77
2023/01/11 02:21:31;;;;;;;12.45;9.00;;;;;;;;;;5055655;28;20133;-77
2023/01/11 02:24:17;;;;;;;13.30;8.18;;;;;;;;;;5018798;28;20569;-77
2023/01/11 02:27:02;;;;;;;12.27;7.83;;;;;;;;;;5022047;28;20048;-76
2023/01/11 02:29:28;;;;;;;12.18;7.80;;;;;;;;;;5038430;28;20103;-76
2023/01/11 02:32:09;;;;;;;14.45;7.68;;;;;;;;;;5040114;28;20041;-76
2023/01/11 02:34:36;;;;;;;9.82;6.35;;;;;;;;;;5040080;28;20056;-76
2023/01/11 02:37:05;;;;;;;12.55;7.50;;;;;;;;;;5034780;28;20372;-76
2023/01/11 02:39:49;;;;;;;13.05;7.38;;;;;;;;;;5028342;28;20047;-76
2023/01/11 02:45:30;;;;;;;18.52;8.63;;;;;;;;;;5020167;28;20050;-76
2023/01/11 02:48:19;;;;;;;13.38;6.63;;;;;;;;;;5019884;28;20042;-76
2023/01/11 02:51:15;;;;;;;17.75;6.25;;;;;;;;;;5012222;28;20049;-76
2023/01/11 02:53:43;;;;;;;19.40;6.97;;;;;;;;;;5020801;28;20072;-76
2023/01/11 02:56:11;;;;;;;17.15;6.13;;;;;;;;;;5033675;28;20053;-76
2023/01/11 02:58:39;;;;;;;18.75;6.10;;;;;;;;;;5036849;28;20444;-76
2023/01/11 03:01:06;;;;;;;23.17;6.15;;;;;;;;;;5029073;28;20422;-76
2023/01/11 03:03:32;;;;;;;17.75;5.10;;;;;;;;;;5020167;28;20046;-76
2023/01/11 03:06:11;;;;;;;19.20;5.60;;;;;;;;;;5036602;28;20079;-76
2023/01/11 03:08:49;;;;;;;16.98;4.95;;;;;;;;;;5019644;28;20052;-77
2023/01/11 03:14:37;;;;;;;14.50;4.78;;;;;;;;;;5019901;28;20054;-77
2023/01/11 03:17:19;;;;;;;18.83;4.70;;;;;;;;;;5018760;28;20046;-77
2023/01/11 03:19:58;;;;;;;22.98;5.30;;;;;;;;;;5018426;28;20046;-76
2023/01/11 03:22:27;;;;;;;20.27;4.78;;;;;;;;;;5019959;28;20045;-76
2023/01/11 03:25:05;;;;;;;22.60;4.53;;;;;;;;;;5018229;28;20507;-76
2023/01/11 03:27:38;;;;;;;22.80;5.47;;;;;;;;;;5027421;28;20046;-76
2023/01/11 03:30:12;;;;;;;26.65;5.63;;;;;;;;;;5038850;28;20045;-77
2023/01/11 03:32:51;;;;;;;32.45;6.15;;;;;;;;;;5035087;28;20049;-76
2023/01/11 03:35:17;;;;;;;25.65;5.05;;;;;;;;;;5033416;28;20051;-77
2023/01/11 03:38:03;;;;;;;22.63;5.70;;;;;;;;;;5036103;28;20041;-77
2023/01/11 03:40:30;;;;;;;19.17;5.35;;;;;;;;;;5029254;28;20429;-77
2023/01/11 03:43:11;;;;;;;24.92;6.20;;;;;;;;;;5022943;28;20514;-77
2023/01/11 03:45:40;;;;;;;25.48;5.10;;;;;;;;;;5019339;28;20050;-77
2023/01/11 03:48:07;;;;;;;26.90;5.53;;;;;;;;;;5016388;28;20461;-77
2023/01/11 03:50:33;;;;;;;28.85;5.63;;;;;;;;;;5016473;28;20045;-77
2023/01/11 03:53:01;;;;;;;23.23;5.47;;;;;;;;;;5017088;28;20049;-77
2023/01/11 03:55:30;;;;;;;30.58;5.60;;;;;;;;;;5016075;28;20077;-77
2023/01/11 03:57:57;;;;;;;29.92;5.30;;;;;;;;;;5015802;28;20408;-77
2023/01/11 04:00:24;;;;;;;26.83;5.13;;;;;;;;;;5015871;28;20116;-77
2023/01/11 04:02:52;;;;;;;26.60;4.93;;;;;;;;;;5015857;28;20568;-77
2023/01/11 04:05:18;;;;;;;25.25;5.63;;;;;;;;;;5016277;28;20515;-77
2023/01/11 04:07:44;;;;;;;21.88;4.95;;;;;;;;;;5015875;28;20086;-77
2023/01/11 04:10:11;;;;;;;27.77;6.05;;;;;;;;;;5016380;28;20038;-77
2023/01/11 04:12:37;;;;;;;23.65;5.05;;;;;;;;;;5023325;28;20058;-77
2023/01/11 04:15:04;;;;;;;18.85;4.05;;;;;;;;;;5025881;28;20045;-77
2023/01/11 04:17:30;;;;;;;19.80;4.32;;;;;;;;;;5015965;28;20138;-77
2023/01/11 04:19:56;;;;;;;25.95;5.00;;;;;;;;;;5022250;28;20069;-77
2023/01/11 04:22:22;;;;;;;22.27;4.38;;;;;;;;;;5035511;28;20100;-77
2023/01/11 04:24:48;;;;;;;17.92;3.95;;;;;;;;;;5035467;28;20388;-77
2023/01/11 04:27:14;;;;;;;20.27;3.65;;;;;;;;;;5033630;28;20381;-77
2023/01/11 04:29:40;;;;;;;19.58;4.45;;;;;;;;;;5027430;28;20103;-77
2023/01/11 04:32:06;;;;;;;16.73;4.00;;;;;;;;;;5015528;28;20121;-77
2023/01/11 04:34:32;;;;;;;15.57;4.32;;;;;;;;;;5015840;28;20437;-77
2023/01/11 04:36:59;;;;;;;16.55;4.18;;;;;;;;;;5035063;28;20084;-78
2023/01/11 04:39:25;;;;;;;22.38;4.70;;;;;;;;;;5017776;28;20524;-77
2023/01/11 04:44:38;;;;;;;23.42;4.50;;;;;;;;;;5015524;28;20049;-77
2023/01/11 04:47:04;;;;;;;22.00;5.13;;;;;;;;;;5020187;28;20053;-77
2023/01/11 04:49:30;;;;;;;24.23;5.13;;;;;;;;;;5028199;28;20046;-77
2023/01/11 04:51:56;;;;;;;25.13;5.57;;;;;;;;;;5035710;28;20048;-77
2023/01/11 04:54:22;;;;;;;22.17;5.43;;;;;;;;;;5035449;28;20073;-77
2023/01/11 04:56:48;;;;;;;22.52;5.93;;;;;;;;;;5015351;28;20044;-77
2023/01/11 04:59:14;;;;;;;22.35;5.15;;;;;;;;;;5015376;28;20041;-77
2023/01/11 05:01:41;;;;;;;22.58;5.20;;;;;;;;;;5025177;28;21996;-77
2023/01/11 05:04:07;;;;;;;17.38;5.55;;;;;;;;;;5018432;28;20125;-77
2023/01/11 05:06:33;;;;;;;18.65;5.13;;;;;;;;;;5018482;28;20117;-78
2023/01/11 05:08:59;;;;;;;15.38;3.35;;;;;;;;;;5028538;28;20060;-77
2023/01/11 05:11:25;;;;;;;14.63;3.28;;;;;;;;;;5034487;28;20111;-77
2023/01/11 05:13:51;;;;;;;14.68;3.50;;;;;;;;;;5034138;28;20053;-77
2023/01/11 05:16:24;;;;;;;15.23;3.80;;;;;;;;;;5031798;28;20084;-77
2023/01/11 05:18:52;;;;;;;14.60;3.72;;;;;;;;;;5014556;28;20045;-77
2023/01/11 05:21:19;;;;;;;10.55;3.50;;;;;;;;;;5034223;28;20037;-77
2023/01/11 05:23:46;;;;;;;13.38;3.45;;;;;;;;;;5034447;28;20068;-77
2023/01/11 05:26:16;;;;;;;10.88;3.30;;;;;;;;;;5034589;28;20037;-77
2023/01/11 05:28:43;;;;;;;13.30;3.28;;;;;;;;;;5034150;28;20045;-78
2023/01/11 05:31:09;;;;;;;17.33;3.38;;;;;;;;;;5028703;28;20042;-77
2023/01/11 05:33:35;;;;;;;15.73;3.47;;;;;;;;;;5016754;28;20188;-77
2023/01/11 05:36:02;;;;;;;12.52;3.00;;;;;;;;;;5027416;28;20046;-77
2023/01/11 05:38:28;;;;;;;18.48;3.40;;;;;;;;;;5014116;28;20088;-77
2023/01/11 05:40:57;;;;;;;16.08;4.22;;;;;;;;;;5014667;28;20074;-77
2023/01/11 05:43:24;;;;;;;14.10;3.55;;;;;;;;;;5014281;28;20049;-77
2023/01/11 05:45:50;;;;;;;16.65;3.63;;;;;;;;;;5013206;28;20052;-77
2023/01/11 05:48:16;;;;;;;10.15;3.30;;;;;;;;;;5020373;28;20051;-77
2023/01/11 05:50:42;;;;;;;8.75;2.90;;;;;;;;;;5032959;28;20045;-78
2023/01/11 05:53:09;;;;;;;10.52;3.10;;;;;;;;;;5033901;28;20124;-78
2023/01/11 05:55:35;;;;;;;9.90;2.92;;;;;;;;;;5034029;28;20050;-78
2023/01/11 05:58:01;;;;;;;10.32;2.67;;;;;;;;;;5033566;28;20045;-78
2023/01/11 06:00:27;;;;;;;12.88;2.75;;;;;;;;;;5028620;28;20045;-77
2023/01/11 06:02:53;;;;;;;9.10;2.80;;;;;;;;;;5019241;28;20049;-77
2023/01/11 06:05:20;;;;;;;14.95;3.17;;;;;;;;;;5033097;28;20054;-78
2023/01/11 06:07:46;;;;;;;11.15;3.50;;;;;;;;;;5033148;28;20077;-78
2023/01/11 06:10:12;;;;;;;10.57;2.70;;;;;;;;;;5033665;28;20076;-78
2023/01/11 06:12:38;;;;;;;10.70;2.95;;;;;;;;;;5033080;28;20080;-78
2023/01/11 06:15:04;;;;;;;8.63;2.53;;;;;;;;;;5033769;28;20045;-78
2023/01/11 06:17:30;;;;;;;9.57;2.55;;;;;;;;;;5031609;28;20496;-78
2023/01/11 06:19:56;;;;;;;11.68;3.35;;;;;;;;;;5033635;28;20041;-78
2023/01/11 06:22:22;;;;;;;14.38;3.10;;;;;;;;;;5028690;28;20049;-78
2023/01/11 06:24:48;;;;;;;9.98;2.75;;;;;;;;;;5011961;28;20203;-78
2023/01/11 06:27:16;;;;;;;11.75;3.10;;;;;;;;;;5014666;28;20052;-78
2023/01/11 06:29:42;;;;;;;7.57;2.75;;;;;;;;;;5016175;28;20050;-78
2023/01/11 06:32:08;;;;;;;15.68;3.10;;;;;;;;;;5029212;28;20042;-78
2023/01/11 06:34:35;;;;;;;11.02;3.10;;;;;;;;;;5020643;28;20037;-78
2023/01/11 06:37:01;;;;;;;13.98;3.30;;;;;;;;;;5013798;28;20084;-78
2023/01/11 06:39:27;;;;;;;13.02;2.70;;;;;;;;;;5013776;28;20129;-78
2023/01/11 06:41:53;;;;;;;13.63;2.80;;;;;;;;;;5013961;28;20410;-78
2023/01/11 06:44:19;;;;;;;10.93;3.20;;;;;;;;;;5023530;28;20045;-78
2023/01/11 06:46:45;;;;;;;14.93;3.60;;;;;;;;;;5015966;28;20077;-78
2023/01/11 06:49:11;;;;;;;11.18;2.95;;;;;;;;;;5013303;28;20070;-78
2023/01/11 06:51:37;;;;;;;13.32;3.03;;;;;;;;;;5013850;28;20071;-78
2023/01/11 06:54:03;;;;;;;10.98;2.45;;;;;;;;;;5013277;28;20053;-79
2023/01/11 06:56:29;;;;;;;9.82;2.80;;;;;;;;;;5013736;28;20436;-78
2023/01/11 06:58:55;;;;;;;11.00;2.67;;;;;;;;;;5012120;28;20085;-79
2023/01/11 07:01:21;;;;;;;10.48;2.60;;;;;;;;;;5014372;28;20044;-78
2023/01/11 07:03:47;;;;;;;4.55;2.30;;;;;;;;;;5018141;28;20033;-78
2023/01/11 07:06:13;;;;;;;7.80;2.50;;;;;;;;;;5031385;28;20045;-77
2023/01/11 07:08:39;;;;;;;8.43;2.97;;;;;;;;;;5025830;28;20042;-77
2023/01/11 07:11:05;;;;;;;10.43;2.70;;;;;;;;;;5028254;28;20046;-77
2023/01/11 07:13:31;;;;;;;8.82;3.25;;;;;;;;;;5017365;28;20100;-79
2023/01/11 07:15:57;;;;;;;10.02;2.50;;;;;;;;;;5017940;28;20050;-77
2023/01/11 07:18:24;;;;;;;8.23;2.30;;;;;;;;;;5028206;28;20041;-77
2023/01/11 07:20:50;;;;;;;8.15;2.50;;;;;;;;;;5033325;28;20049;-78
2023/01/11 07:23:16;;;;;;;12.23;3.35;;;;;;;;;;5033798;28;20072;-77
2023/01/11 07:25:42;;;;;;;9.88;2.50;;;;;;;;;;5037250;28;20045;-77
2023/01/11 07:28:09;;;;;;;12.40;2.42;;;;;;;;;;5030406;28;20045;-77
2023/01/11 07:30:36;;;;;;;7.10;2.20;;;;;;;;;;5035260;28;20099;-77
2023/01/11 07:33:05;;;;;;;7.50;2.17;;;;;;;;;;5024469;28;20044;-78
2023/01/11 07:35:31;;;;;;;9.50;2.78;;;;;;;;;;5017813;28;20104;-79
2023/01/11 07:37:57;;;;;;;14.93;3.25;;;;;;;;;;5017023;28;20125;-78
2023/01/11 07:40:23;;;;;;;13.20;3.17;;;;;;;;;;5016703;28;20500;-78
2023/01/11 07:45:35;;;;;;;10.95;3.17;;;;;;;;;;5016484;28;20069;-79
2023/01/11 07:48:03;;;;;;;10.35;2.42;;;;;;;;;;5016909;28;20496;-79
2023/01/11 07:50:29;;;;;;;12.77;3.22;;;;;;;;;;5017607;28;20045;-79
2023/01/11 07:52:55;;;;;;;11.27;2.90;;;;;;;;;;5018059;28;20049;-79
2023/01/11 07:55:21;;;;;;;11.32;2.85;;;;;;;;;;5023305;28;20041;-79
2023/01/11 07:57:47;;;;;;;12.75;3.00;;;;;;;;;;5041828;28;20064;-79
2023/01/11 08:00:13;;;;;;;10.85;2.45;;;;;;;;;;5029311;28;20070;-79
2023/01/11 08:02:39;;;;;;;11.60;2.83;;;;;;;;;;5021466;28;20052;-79
2023/01/11 08:05:05;;;;;;;12.18;2.65;;;;;;;;;;5001365;28;20378;-79
2023/01/11 08:07:31;;;;;;;9.75;3.03;;;;;;;;;;5016561;28;20492;-79
2023/01/11 08:09:57;;;;;;;8.18;2.60;;;;;;;;;;5022827;28;20552;-79
2023/01/11 08:15:11;;;;;;;14.45;3.47;;;;;;;;;;5036312;28;20046;-79
2023/01/11 08:17:37;;;;;;;13.18;2.80;;;;;;;;;;5035143;28;20050;-78
2023/01/11 08:20:03;;;;;;;16.80;3.45;;;;;;;;;;5022047;28;20108;-78
2023/01/11 08:22:29;;;;;;;10.63;2.72;;;;;;;;;;5017655;28;20069;-78
2023/01/11 08:24:55;;;;;;;12.55;2.97;;;;;;;;;;5016769;28;20090;-79
2023/01/11 08:27:21;;;;;;;12.43;3.20;;;;;;;;;;5016635;28;20049;-79
2023/01/11 08:29:47;;;;;;;11.32;3.30;;;;;;;;;;5027046;28;20046;-79
2023/01/11 08:32:14;;;;;;;14.02;3.63;;;;;;;;;;5017084;28;20108;-78
2023/01/11 08:34:40;;;;;;;8.55;3.13;;;;;;;;;;5026453;28;20096;-78
2023/01/11 08:37:06;;;;;;;8.50;3.70;;;;;;;;;;5036710;28;20060;-79
2023/01/11 08:39:32;;;;;;;12.77;3.40;;;;;;;;;;5033216;28;20033;-81
2023/01/11 08:41:58;;;;;;;14.25;3.90;;;;;;;;;;5021125;28;20042;-79
2023/01/11 08:44:25;;;;;;;12.75;3.60;;;;;;;;;;5017187;28;20096;-79
2023/01/11 08:46:51;;;;;;;9.70;3.30;;;;;;;;;;5017743;28;20108;-79
2023/01/11 08:49:17;;;;;;;12.57;3.45;;;;;;;;;;5019047;28;20436;-79
2023/01/11 08:51:43;;;;;;;12.10;3.53;;;;;;;;;;5017621;28;20038;-79
2023/01/11 08:54:11;;;;;;;11.93;3.30;;;;;;;;;;5026698;28;20065;-77
2023/01/11 08:56:37;;;;;;;10.38;3.25;;;;;;;;;;5019264;28;20045;-80
2023/01/11 08:59:04;;;;;;;14.27;3.47;;;;;;;;;;5036653;28;20055;-79
2023/01/11 09:01:30;;;;;;;14.60;3.25;;;;;;;;;;5019517;28;20121;-81
2023/01/11 09:03:56;;;;;;;12.57;3.22;;;;;;;;;;5025121;28;20104;-79
2023/01/11 09:06:22;;;;;;;12.68;3.10;;;;;;;;;;5022522;28;20049;-79
2023/01/11 09:08:48;;;;;;;8.65;3.20;;;;;;;;;;5026432;28;20040;-79
2023/01/11 09:13:59;;;;;;;10.57;3.30;;;;;;;;;;5026988;28;20132;-78
2023/01/11 09:16:25;;;;;;;14.32;2.95;;;;;;;;;;5037721;28;20053;-78
2023/01/11 09:18:51;;;;;;;14.50;3.40;;;;;;;;;;5031784;28;20096;-79
2023/01/11 09:21:18;;;;;;;11.98;2.97;;;;;;;;;;5038325;28;20038;-79
2023/01/11 09:23:44;;;;;;;15.20;3.22;;;;;;;;;;5031661;28;20049;-79
2023/01/11 09:26:11;;;;;;;13.73;2.83;;;;;;;;;;5032365;28;20049;-79
2023/01/11 09:28:37;;;;;;;10.98;3.20;;;;;;;;;;5027613;28;20050;-79
2023/01/11 09:31:04;;;;;;;10.15;3.03;;;;;;;;;;5039131;28;20396;-78
2023/01/11 09:33:30;;;;;;;10.52;3.55;;;;;;;;;;5023522;28;20496;-79
2023/01/11 09:35:57;;;;;;;13.07;2.95;;;;;;;;;;5020017;28;20163;-80
2023/01/11 09:38:28;;;;;;;11.20;3.38;;;;;;;;;;5035638;28;20164;-79
2023/01/11 09:41:10;;;;;;;13.25;3.13;;;;;;;;;;5036912;28;20076;-79
2023/01/11 09:43:44;;;;;;;12.45;3.08;;;;;;;;;;5032810;28;20049;-79
2023/01/11 09:46:12;;;;;;;9.85;2.88;;;;;;;;;;5016759;28;20054;-79
2023/01/11 09:48:51;;;;;;;17.17;3.40;;;;;;;;;;5020066;28;20045;-80
2023/01/11 09:51:18;;;;;;;12.07;3.20;;;;;;;;;;5038165;28;20396;-79
2023/01/11 09:53:49;;;;;;;16.65;2.92;;;;;;;;;;5037376;28;20053;-79
2023/01/11 09:56:18;;;;;;;12.13;2.70;;;;;;;;;;5013072;28;20611;-79
2023/01/11 09:58:45;;;;;;;14.95;3.35;;;;;;;;;;5037502;28;20037;-79
2023/01/11 10:01:17;;;;;;;9.55;2.50;;;;;;;;;;5028217;28;20053;-79
2023/01/11 10:03:44;;;;;;;12.98;3.28;;;;;;;;;;5024039;28;20509;-80
2023/01/11 10:06:10;;;;;;;10.18;2.90;;;;;;;;;;5036319;28;20124;-79
2023/01/11 10:08:39;;;;;;;14.18;3.15;;;;;;;;;;5038568;28;20046;-79
2023/01/11 10:11:32;;;;;;;10.32;2.72;;;;;;;;;;5039642;28;20384;-79
2023/01/11 10:14:13;;;;;;;9.30;2.75;;;;;;;;;;5027530;28;20053;-79
2023/01/11 10:16:42;;;;;;;13.75;3.03;;;;;;;;;;5035968;28;20067;-78
2023/01/11 10:19:15;;;;;;;12.00;2.95;;;;;;;;;;5031768;28;20049;-78
2023/01/11 10:21:42;;;;;;;9.45;3.28;;;;;;;;;;5032301;28;20410;-79
2023/01/11 10:24:20;;;;;;;11.07;3.20;;;;;;;;;;5021436;28;20086;-79
2023/01/11 10:26:48;;;;;;;15.70;3.28;;;;;;;;;;5025602;28;20059;-79
2023/01/11 10:29:29;;;;;;;9.05;2.92;;;;;;;;;;5038826;28;20488;-79
2023/01/11 10:40:39;;;;;;;12.48;2.90;;;;;;;;;;5040636;28;20056;-79
2023/01/11 10:43:21;;;;;;;11.98;2.90;;;;;;;;;;5022769;28;20052;-79
2023/01/11 10:45:56;;;;;;;13.45;3.00;;;;;;;;;;5038469;28;20149;-79
2023/01/11 10:48:28;;;;;;;16.63;3.28;;;;;;;;;;5041035;28;20056;-79
2023/01/11 10:51:02;;;;;;;14.00;3.22;;;;;;;;;;5033502;28;20037;-80
2023/01/11 10:53:31;;;;;;;11.73;3.58;;;;;;;;;;5032600;28;20049;-79
2023/01/11 10:56:04;;;;;;;11.50;2.95;;;;;;;;;;5024222;28;20077;-79
2023/01/11 10:58:40;;;;;;;11.65;3.50;;;;;;;;;;5020740;28;20505;-79
2023/01/11 11:01:17;;;;;;;10.77;3.47;;;;;;;;;;5032135;28;20045;-79
2023/01/11 11:03:44;;;;;;;13.48;3.40;;;;;;;;;;5043450;28;20117;-79
2023/01/11 11:06:28;;;;;;;13.57;3.28;;;;;;;;;;5039041;28;20041;-80
2023/01/11 11:09:08;;;;;;;15.20;3.85;;;;;;;;;;5023127;28;20045;-79
2023/01/11 11:11:36;;;;;;;13.07;3.83;;;;;;;;;;5026276;28;20098;-79
2023/01/11 11:14:12;;;;;;;13.02;3.45;;;;;;;;;;5017356;28;20050;-79
2023/01/11 11:16:47;;;;;;;13.90;4.05;;;;;;;;;;5036043;28;20093;-79
2023/01/11 11:19:16;;;;;;;18.65;3.33;;;;;;;;;;5030500;28;20052;-79
2023/01/11 11:21:42;;;;;;;11.30;3.40;;;;;;;;;;5027827;28;20069;-79
2023/01/11 11:24:31;;;;;;;15.90;3.70;;;;;;;;;;5038780;28;20049;-79
2023/01/11 11:27:00;;;;;;;12.25;3.63;;;;;;;;;;5028120;28;20154;-79
2023/01/11 11:29:29;;;;;;;13.55;3.17;;;;;;;;;;5047258;28;20602;-79
2023/01/11 11:31:56;;;;;;;13.18;3.67;;;;;;;;;;5047460;28;20132;-82
2023/01/11 11:34:26;;;;;;;15.57;3.63;;;;;;;;;;5041985;28;20038;-80
2023/01/11 11:36:52;;;;;;;13.65;3.20;;;;;;;;;;5028233;28;20103;-80
2023/01/11 11:39:27;;;;;;;14.93;3.38;;;;;;;;;;5038738;28;20093;-80
2023/01/11 11:42:04;;;;;;;14.68;3.85;;;;;;;;;;5040537;28;20069;-80
2023/01/11 11:44:30;;;;;;;16.90;3.47;;;;;;;;;;5043985;28;20088;-80
2023/01/11 11:47:00;;;;;;;13.70;2.97;;;;;;;;;;5043835;28;20041;-80
2023/01/11 11:49:27;;;;;;;11.90;3.20;;;;;;;;;;5051027;28;20052;-79
2023/01/11 11:51:54;;;;;;;12.98;3.17;;;;;;;;;;5035598;28;20042;-79
2023/01/11 11:54:31;;;;;;;11.38;4.13;;;;;;;;;;5043037;28;20491;-79
2023/01/11 11:56:58;;;;;;;19.20;4.60;;;;;;;;;;5038599;28;20056;-78
2023/01/11 11:59:27;;;;;;;19.13;3.65;;;;;;;;;;5043318;28;20049;-79
2023/01/11 12:02:02;;;;;;;11.95;3.80;;;;;;;;;;5039029;28;20038;-79
2023/01/11 12:04:32;;;;;;;13.77;3.55;;;;;;;;;;5024334;28;20070;-79
2023/01/11 12:07:25;;;;;;;18.48;4.30;;;;;;;;;;5041866;28;20545;-79
2023/01/11 12:10:02;;;;;;;17.95;3.65;;;;;;;;;;5028947;28;20050;-78
2023/01/11 12:12:28;;;;;;;19.35;3.60;;;;;;;;;;5026991;28;20038;-79
2023/01/11 12:15:05;;;;;;;14.00;3.80;;;;;;;;;;5022390;28;20103;-79
2023/01/11 12:17:31;;;;;;;15.35;3.55;;;;;;;;;;5022693;28;20049;-79
2023/01/11 12:19:57;;;;;;;17.27;3.67;;;;;;;;;;5023439;28;20046;-79
2023/01/11 12:22:24;;;;;;;16.50;3.80;;;;;;;;;;5030044;28;20042;-79
2023/01/11 12:25:27;;;;;;;16.70;3.70;;;;;;;;;;5043270;28;20124;-79
2023/01/11 12:27:57;;;;;;;16.67;4.18;;;;;;;;;;4962635;29;20047;-79
2023/01/11 12:30:26;;;;;;;16.73;3.45;;;;;;;;;;4962056;29;20059;-79
2023/01/11 12:33:11;;;;;;;11.48;3.80;;;;;;;;;;4962250;29;20051;-79
2023/01/11 12:35:40;;;;;;;16.02;3.63;;;;;;;;;;4961442;29;20055;-79
2023/01/11 12:38:24;;;;;;;18.33;4.25;;;;;;;;;;4954156;29;20043;-79
2023/01/11 12:41:00;;;;;;;22.73;4.20;;;;;;;;;;4961733;29;20103;-79
2023/01/11 12:43:34;;;;;;;16.33;3.53;;;;;;;;;;4961321;29;20103;-78
2023/01/11 12:46:15;;;;;;;20.67;3.90;;;;;;;;;;4962132;29;20093;-80
2023/01/11 12:48:55;;;;;;;17.23;4.63;;;;;;;;;;4961384;29;20047;-80
2023/01/11 12:51:44;;;;;;;20.88;4.00;;;;;;;;;;4962465;29;20050;-79
2023/01/11 12:54:31;;;;;;;14.80;3.72;;;;;;;;;;4958087;29;20051;-82
2023/01/11 12:57:16;;;;;;;16.67;3.70;;;;;;;;;;4959256;29;20379;-80
2023/01/11 13:00:18;;;;;;;13.02;3.95;;;;;;;;;;4959152;29;20054;-81
2023/01/11 13:02:54;;;;;;;19.75;3.90;;;;;;;;;;4934401;29;20059;-80
2023/01/11 13:05:29;;;;;;;22.13;4.65;;;;;;;;;;4940033;29;20051;-79
2023/01/11 13:08:03;;;;;;;20.17;4.47;;;;;;;;;;4941665;29;20048;-79
2023/01/11 13:10:32;;;;;;;18.20;4.60;;;;;;;;;;4959308;29;20055;-80
2023/01/11 13:13:04;;;;;;;22.05;4.45;;;;;;;;;;4957945;29;20142;-80
2023/01/11 13:16:09;;;;;;;17.67;3.83;;;;;;;;;;4958339;29;20057;-79
2023/01/11 13:18:44;;;;;;;23.85;4.38;;;;;;;;;;4919481;29;20051;-80
2023/01/11 13:21:29;;;;;;;17.77;5.55;;;;;;;;;;4901641;29;20115;-80
2023/01/11 13:24:03;;;;;;;19.15;4.30;;;;;;;;;;4908861;29;20048;-79
2023/01/11 13:26:35;;;;;;;14.77;4.05;;;;;;;;;;4917642;29;20036;-80
2023/01/11 13:29:10;;;;;;;19.50;4.45;;;;;;;;;;4919119;29;20048;-81
2023/01/11 13:31:37;;;;;;;26.73;5.10;;;;;;;;;;4904089;29;20059;-80
2023/01/11 13:34:05;;;;;;;20.23;4.28;;;;;;;;;;4910053;29;20132;-79
2023/01/11 13:36:37;;;;;;;18.63;4.50;;;;;;;;;;4913681;29;20414;-79
2023/01/11 13:39:14;;;;;;;18.15;4.50;;;;;;;;;;4936014;29;20044;-79
2023/01/11 13:41:40;;;;;;;;;;;;;;;;;;4941099;29;20058;-79
2023/01/11 13:44:14;;;;;;;15.07;3.90;;;;;;;;;;4939786;29;20013;-79
2023/01/11 13:46:47;;;;;;;14.77;3.60;;;;;;;;;;4937976;29;20118;-80
2023/01/11 13:49:24;;;;;;;22.50;4.57;;;;;;;;;;4979674;28;20049;-84
2023/01/11 13:52:02;;;;;;;21.67;4.88;;;;;;;;;;5024012;28;20050;-80
2023/01/11 13:54:31;;;;;;;22.02;5.00;;;;;;;;;;5024847;28;20104;-79
2023/01/11 13:57:02;;;;;;;22.33;5.53;;;;;;;;;;5036997;28;20053;-80
2023/01/11 13:59:37;;;;;;;21.15;4.25;;;;;;;;;;5037044;28;20077;-80
2023/01/11 14:02:18;;;;;;;20.70;4.20;;;;;;;;;;5036874;28;20051;-79
2023/01/11 14:04:53;;;;;;;18.83;4.50;;;;;;;;;;5025157;28;20041;-79
2023/01/11 14:07:31;;;;;;;16.85;4.25;;;;;;;;;;5016811;28;20045;-81
2023/01/11 14:09:57;;;;;;;15.10;3.97;;;;;;;;;;5031869;28;20053;-80
2023/01/11 14:12:34;;;;;;;18.27;4.25;;;;;;;;;;5036454;28;20076;-80
2023/01/11 14:15:07;;;;;;;20.15;4.13;;;;;;;;;;5026965;28;20069;-80
2023/01/11 14:17:48;;;;;;;20.80;4.65;;;;;;;;;;5035684;28;20493;-80
2023/01/11 14:20:19;;;;;;;18.65;4.03;;;;;;;;;;5025886;28;20404;-79
2023/01/11 14:23:04;;;;;;;15.98;4.03;;;;;;;;;;5034874;28;20045;-79
2023/01/11 14:25:33;;;;;;;17.90;4.35;;;;;;;;;;5034480;28;20080;-79
2023/01/11 14:28:05;;;;;;;21.58;5.38;;;;;;;;;;5036610;28;20041;-79
2023/01/11 14:31:07;;;;;;;17.33;4.20;;;;;;;;;;5034554;28;20045;-79
2023/01/11 14:33:33;;;;;;;15.02;4.20;;;;;;;;;;4953732;29;20123;-79
2023/01/11 14:36:06;;;;;;;19.50;4.40;;;;;;;;;;4970596;28;20375;-79
2023/01/11 14:38:51;;;;;;;13.65;4.00;;;;;;;;;;4978579;28;20053;-79
2023/01/11 14:41:17;;;;;;;15.13;3.95;;;;;;;;;;4955954;28;20052;-79
2023/01/11 14:43:54;;;;;;;18.63;4.35;;;;;;;;;;4950885;29;20051;-82
2023/01/11 14:46:29;;;;;;;19.83;4.38;;;;;;;;;;4963518;28;20039;-84
2023/01/11 14:49:11;;;;;;;21.80;4.07;;;;;;;;;;4958159;29;20055;-80
2023/01/11 14:51:37;;;;;;;16.73;3.53;;;;;;;;;;4956784;29;20074;-80
2023/01/11 14:54:35;;;;;;;18.13;3.63;;;;;;;;;;4968876;28;20073;-79
2023/01/11 14:57:01;;;;;;;14.95;4.10;;;;;;;;;;4946305;29;20055;-82
2023/01/11 14:59:30;;;;;;;20.20;4.45;;;;;;;;;;4938752;29;20541;-82
2023/01/11 15:02:02;;;;;;;17.58;3.65;;;;;;;;;;4956032;29;20134;-81
2023/01/11 15:04:29;;;;;;;22.00;4.82;;;;;;;;;;4929481;29;20094;-78
2023/01/11 15:06:56;;;;;;;19.65;3.92;;;;;;;;;;4972273;28;20053;-78
2023/01/11 15:09:42;;;;;;;18.35;4.03;;;;;;;;;;5028849;28;20502;-77
2023/01/11 15:12:18;;;;;;;21.63;4.30;;;;;;;;;;5025027;28;20088;-77
2023/01/11 15:14:49;;;;;;;13.52;3.65;;;;;;;;;;5015328;28;20068;-78
2023/01/11 15:20:12;;;;;;;21.25;3.60;;;;;;;;;;5017086;28;20037;-76
2023/01/11 15:22:38;;;;;;;24.85;4.72;;;;;;;;;;5023412;28;20081;-78
2023/01/11 15:25:06;;;;;;;31.90;4.93;;;;;;;;;;5025605;28;20046;-78
2023/01/11 15:27:36;;;;;;;19.88;4.03;;;;;;;;;;5026026;28;20480;-77